Yealmpton, United Kingdom
Current Conditions -  °F | °C
As of 12:50 PM on Saturday 20 Dec 2014 (Local Time) from EGTE Reporting Station
Rain Showers Rain Showers  
Wind Chill: 43°   Ceiling: Unl
Heat Index: 48°   Visibility: 6mi
Dew Point: 41°   Wind: 14mph
Humidity: 76%   Direction: 290°WNW
Pressure: 30.42"   Gusts: NA
Location:  50.35°N, 4°W
Report Text: EGTE 201250Z 29012KT 260V320 9999 VCSH FEW028 SCT040 09/05 Q1030
Loading
Personal Weather Stations






























Interactive Weather Map New forecast layout! Learn more

10-Day Weather Forecast

Advertisements
Track Severe Weather on mobile